Time;durP1;ratioP1;P1;durP2;ratioP2;P2;SDS_P1;SDS_P2;PMS_P1;PMS_P2;Temp;Humidity;BMP_temperature;BMP_pressure;BME280_temperature;BME280_humidity;BME280_pressure;Samples;Min_cycle;Max_cycle;Signal;HPM_P1;HPM_P2
2023/03/29 00:00:44;;;;;;;6.15;2.17;;;5.60;99.90;;;;;;5049327;28;20060;-67
2023/03/29 00:03:11;;;;;;;5.28;2.25;;;5.60;99.90;;;;;;5050578;28;20124;-68
2023/03/29 00:05:40;;;;;;;4.13;2.42;;;5.60;99.90;;;;;;5050970;28;20045;-67
2023/03/29 00:08:07;;;;;;;3.17;1.88;;;5.60;99.90;;;;;;5049932;28;20044;-67
2023/03/29 00:10:33;;;;;;;5.13;2.63;;;5.60;99.90;;;;;;5050537;28;20359;-67
2023/03/29 00:13:00;;;;;;;5.63;2.90;;;5.60;99.90;;;;;;5049610;28;20048;-67
2023/03/29 00:15:26;;;;;;;3.78;2.08;;;5.60;99.90;;;;;;5049627;28;20090;-67
2023/03/29 00:17:52;;;;;;;5.63;2.60;;;5.60;99.90;;;;;;5050340;28;20045;-67
2023/03/29 00:20:18;;;;;;;4.35;2.30;;;5.60;99.90;;;;;;5050851;28;20045;-68
2023/03/29 00:22:45;;;;;;;5.53;2.50;;;5.60;99.90;;;;;;5049625;28;20716;-67
2023/03/29 00:25:12;;;;;;;6.30;2.38;;;5.60;99.90;;;;;;5048960;28;20138;-69
2023/03/29 00:27:38;;;;;;;10.25;2.88;;;5.60;99.90;;;;;;5049618;28;20090;-67
2023/03/29 00:30:06;;;;;;;3.97;2.42;;;5.60;99.90;;;;;;5050861;28;20041;-67
2023/03/29 00:32:33;;;;;;;5.13;2.47;;;5.60;99.90;;;;;;5049049;28;20124;-67
2023/03/29 00:35:03;;;;;;;5.95;2.40;;;5.60;99.90;;;;;;5049474;28;20175;-67
2023/03/29 00:37:29;;;;;;;4.72;1.70;;;5.60;99.90;;;;;;5050882;28;20044;-67
2023/03/29 00:39:56;;;;;;;4.40;2.50;;;5.60;99.90;;;;;;5048884;28;20045;-67
2023/03/29 00:42:23;;;;;;;5.82;2.38;;;5.60;99.90;;;;;;5049357;28;20037;-67
2023/03/29 00:45:11;;;;;;;5.30;2.40;;;5.60;99.90;;;;;;5048994;28;20094;-68
2023/03/29 00:48:04;;;;;;;5.20;2.92;;;5.60;99.90;;;;;;5049533;28;20203;-67
2023/03/29 00:50:36;;;;;;;5.38;2.20;;;5.60;99.90;;;;;;5049056;28;20092;-68
2023/03/29 00:53:05;;;;;;;4.13;2.20;;;5.60;99.90;;;;;;5048792;28;20044;-67
2023/03/29 00:55:37;;;;;;;4.55;2.65;;;5.60;99.90;;;;;;5050641;28;20033;-67
2023/03/29 00:58:07;;;;;;;4.63;1.95;;;5.60;99.90;;;;;;5050709;28;20063;-67
2023/03/29 01:00:36;;;;;;;4.03;2.33;;;5.60;99.90;;;;;;5048840;28;20041;-69
2023/03/29 01:03:12;;;;;;;10.68;2.17;;;5.60;99.90;;;;;;5049573;28;20398;-70
2023/03/29 01:05:43;;;;;;;5.35;2.80;;;5.60;99.90;;;;;;5050150;28;20048;-69
2023/03/29 01:08:17;;;;;;;3.72;1.75;;;5.60;99.90;;;;;;5050280;28;20120;-67
2023/03/29 01:11:05;;;;;;;5.18;2.40;;;5.60;99.90;;;;;;5032659;28;20037;-68
2023/03/29 01:13:43;;;;;;;4.45;2.30;;;5.60;99.90;;;;;;5051734;28;20033;-69
2023/03/29 01:16:12;;;;;;;5.75;2.10;;;5.60;99.90;;;;;;5054489;28;20060;-67
2023/03/29 01:18:38;;;;;;;7.55;2.92;;;5.60;99.90;;;;;;5054485;28;20048;-68
2023/03/29 01:21:15;;;;;;;7.05;2.75;;;5.60;99.90;;;;;;5035858;28;20051;-68
2023/03/29 01:24:05;;;;;;;3.40;2.45;;;5.60;99.90;;;;;;5052659;28;20063;-67
2023/03/29 01:26:39;;;;;;;3.65;1.85;;;5.60;99.90;;;;;;5054058;28;20049;-67
2023/03/29 01:29:08;;;;;;;7.00;2.78;;;5.60;99.90;;;;;;5053871;28;20477;-67
2023/03/29 01:31:38;;;;;;;5.72;2.88;;;5.60;99.90;;;;;;5054126;28;20051;-67
2023/03/29 01:34:13;;;;;;;5.05;2.22;;;5.60;99.90;;;;;;5053729;28;20123;-67
2023/03/29 01:37:11;;;;;;;4.57;2.38;;;5.60;99.90;;;;;;5053973;28;20486;-67
2023/03/29 01:39:36;;;;;;;3.83;2.00;;;5.60;99.90;;;;;;5053802;28;20048;-67
2023/03/29 01:42:22;;;;;;;4.60;2.53;;;5.70;99.90;;;;;;5051921;28;20045;-67
2023/03/29 01:44:55;;;;;;;4.13;2.80;;;5.70;99.90;;;;;;5053793;28;20386;-67
2023/03/29 01:47:50;;;;;;;4.93;2.50;;;5.70;99.90;;;;;;5053608;28;20072;-67
2023/03/29 01:50:43;;;;;;;4.00;2.30;;;5.70;99.90;;;;;;5051743;28;20140;-68
2023/03/29 01:53:17;;;;;;;6.65;3.08;;;5.70;99.90;;;;;;5052403;28;20049;-66
2023/03/29 01:55:52;;;;;;;7.10;3.92;;;5.70;99.90;;;;;;5051671;28;20512;-67
2023/03/29 01:58:21;;;;;;;8.60;3.55;;;5.70;99.90;;;;;;5052108;28;20045;-67
2023/03/29 02:00:49;;;;;;;7.20;2.55;;;5.70;99.90;;;;;;5053305;28;20036;-68
2023/03/29 02:03:17;;;;;;;5.18;3.40;;;5.70;99.90;;;;;;5051470;28;20385;-67
2023/03/29 02:05:44;;;;;;;6.38;3.35;;;5.70;99.90;;;;;;5052068;28;20102;-67
2023/03/29 02:08:14;;;;;;;8.40;3.08;;;5.70;99.90;;;;;;5051934;28;20041;-67
2023/03/29 02:10:40;;;;;;;5.80;3.17;;;5.70;99.90;;;;;;5034872;28;20094;-68
2023/03/29 02:13:06;;;;;;;7.35;3.65;;;5.70;99.90;;;;;;5053146;28;20045;-68
2023/03/29 02:15:32;;;;;;;6.68;3.13;;;5.70;99.90;;;;;;5053192;28;20124;-68
2023/03/29 02:17:58;;;;;;;5.78;2.75;;;5.70;99.90;;;;;;5052257;28;20060;-69
2023/03/29 02:20:30;;;;;;;6.03;2.97;;;5.70;99.90;;;;;;5035154;28;20045;-66
2023/03/29 02:22:56;;;;;;;5.82;3.60;;;5.70;99.90;;;;;;5051794;28;20139;-67
2023/03/29 02:25:23;;;;;;;4.85;2.83;;;5.70;99.90;;;;;;5051658;28;20187;-67
2023/03/29 02:27:50;;;;;;;5.60;3.80;;;5.70;99.90;;;;;;5051665;28;20041;-67
2023/03/29 02:30:19;;;;;;;5.10;3.90;;;5.70;99.90;;;;;;5051049;28;20059;-68
2023/03/29 02:33:00;;;;;;;5.57;3.60;;;5.70;99.90;;;;;;5051699;28;20045;-69
2023/03/29 02:35:39;;;;;;;8.07;3.95;;;5.70;99.90;;;;;;5035185;28;20037;-68
2023/03/29 02:38:10;;;;;;;7.35;3.53;;;5.70;99.90;;;;;;5052587;28;20048;-69
2023/03/29 02:40:38;;;;;;;7.85;4.00;;;5.80;99.90;;;;;;5052936;28;20049;-67
2023/03/29 02:43:06;;;;;;;7.00;4.00;;;5.70;99.90;;;;;;5052628;28;20505;-67
2023/03/29 02:45:35;;;;;;;6.25;3.40;;;5.70;99.90;;;;;;5051067;28;20144;-67
2023/03/29 02:48:08;;;;;;;8.10;3.65;;;5.70;99.90;;;;;;5051152;28;20041;-67
2023/03/29 02:50:39;;;;;;;7.68;4.55;;;5.70;99.90;;;;;;5051756;28;20567;-66
2023/03/29 02:53:13;;;;;;;6.60;3.80;;;5.70;99.90;;;;;;5052363;28;20044;-67
2023/03/29 02:55:40;;;;;;;5.38;3.22;;;5.70;99.90;;;;;;5052428;28;20493;-67
2023/03/29 02:58:09;;;;;;;7.40;4.35;;;5.80;99.90;;;;;;5051797;28;20037;-67
2023/03/29 03:00:44;;;;;;;6.70;4.00;;;5.70;99.90;;;;;;5034344;28;20048;-67
2023/03/29 03:03:11;;;;;;;6.32;4.18;;;5.80;99.90;;;;;;5051223;28;20397;-67
2023/03/29 03:05:38;;;;;;;8.02;3.92;;;5.80;99.90;;;;;;5050356;28;20515;-67
2023/03/29 03:08:06;;;;;;;8.85;3.95;;;5.80;99.90;;;;;;5051053;28;20572;-68
2023/03/29 03:10:33;;;;;;;5.28;3.42;;;5.80;99.90;;;;;;5051112;28;20053;-66
2023/03/29 03:12:59;;;;;;;7.47;3.70;;;5.80;99.90;;;;;;5050487;28;20128;-67
2023/03/29 03:15:26;;;;;;;6.78;4.38;;;5.80;99.90;;;;;;5052026;28;20119;-67
2023/03/29 03:17:53;;;;;;;8.48;3.25;;;5.90;99.90;;;;;;5052235;28;20143;-68
2023/03/29 03:20:21;;;;;;;5.85;3.47;;;5.90;99.90;;;;;;5050394;28;20143;-67
2023/03/29 03:22:50;;;;;;;7.32;3.88;;;5.90;99.90;;;;;;5050540;28;20075;-67
2023/03/29 03:25:19;;;;;;;6.67;4.00;;;5.90;99.90;;;;;;5051919;28;20131;-67
2023/03/29 03:27:47;;;;;;;6.23;2.90;;;5.80;99.90;;;;;;5051176;28;20049;-67
2023/03/29 03:30:16;;;;;;;8.15;4.10;;;5.90;99.90;;;;;;5051941;28;20052;-68
2023/03/29 03:32:43;;;;;;;6.40;3.63;;;5.90;99.90;;;;;;5050101;28;20087;-67
2023/03/29 03:35:10;;;;;;;5.68;3.85;;;5.90;99.90;;;;;;5049807;28;20044;-67
2023/03/29 03:37:37;;;;;;;6.75;4.22;;;5.90;99.90;;;;;;5050515;28;20033;-67
2023/03/29 03:40:05;;;;;;;6.80;3.67;;;5.90;99.90;;;;;;5033220;28;20041;-69
2023/03/29 03:42:31;;;;;;;7.28;3.95;;;5.90;99.90;;;;;;5051551;28;20036;-69
2023/03/29 03:44:57;;;;;;;5.90;3.22;;;5.90;99.90;;;;;;5051395;28;20037;-68
2023/03/29 03:47:23;;;;;;;6.13;2.92;;;5.90;99.90;;;;;;5049718;28;20091;-67
2023/03/29 03:49:50;;;;;;;6.20;3.72;;;5.90;99.90;;;;;;5050082;28;20040;-69
2023/03/29 03:52:17;;;;;;;10.10;4.05;;;5.90;99.90;;;;;;5050175;28;20045;-67
2023/03/29 03:54:45;;;;;;;5.30;2.78;;;5.90;99.90;;;;;;5049778;28;20056;-67
2023/03/29 03:57:11;;;;;;;7.60;4.05;;;5.90;99.90;;;;;;5050173;28;20037;-67
2023/03/29 03:59:37;;;;;;;6.50;3.47;;;5.90;99.90;;;;;;5049902;28;20041;-69
2023/03/29 04:02:04;;;;;;;8.50;4.35;;;5.90;99.90;;;;;;5050668;28;20048;-67
2023/03/29 04:04:30;;;;;;;6.05;3.90;;;5.90;99.90;;;;;;5049873;28;20041;-67
2023/03/29 04:07:01;;;;;;;7.13;3.88;;;5.90;99.90;;;;;;5049984;28;20052;-67
2023/03/29 04:09:28;;;;;;;5.78;3.22;;;5.90;99.90;;;;;;5049572;28;20041;-67
2023/03/29 04:11:55;;;;;;;7.70;3.83;;;5.90;99.90;;;;;;5049772;28;20085;-67
2023/03/29 04:14:21;;;;;;;8.18;3.85;;;5.90;99.90;;;;;;5051174;28;20370;-67
2023/03/29 04:16:47;;;;;;;7.82;4.72;;;6.00;99.90;;;;;;5049152;28;20047;-67
2023/03/29 04:19:13;;;;;;;7.40;4.50;;;6.00;99.90;;;;;;5050902;28;20037;-67
2023/03/29 04:21:39;;;;;;;8.73;4.30;;;6.00;99.90;;;;;;5049108;28;20053;-70
2023/03/29 04:24:05;;;;;;;6.28;3.85;;;5.90;99.90;;;;;;5050659;28;20056;-67
2023/03/29 04:26:31;;;;;;;8.35;4.32;;;6.00;99.90;;;;;;5049481;28;20473;-67
2023/03/29 04:28:56;;;;;;;8.93;4.35;;;6.00;99.90;;;;;;5050257;28;20139;-67
2023/03/29 04:31:22;;;;;;;6.07;3.78;;;5.90;99.90;;;;;;5050733;28;20044;-67
2023/03/29 04:33:48;;;;;;;9.45;3.58;;;6.00;99.90;;;;;;5032828;28;20045;-67
2023/03/29 04:36:14;;;;;;;7.68;4.18;;;6.00;99.90;;;;;;5049313;28;20156;-67
2023/03/29 04:38:41;;;;;;;7.57;4.30;;;6.00;99.90;;;;;;5049313;28;20052;-67
2023/03/29 04:41:08;;;;;;;8.43;3.92;;;6.00;99.90;;;;;;5050885;28;20041;-67
2023/03/29 04:43:34;;;;;;;7.97;4.68;;;6.00;99.90;;;;;;5050017;28;20051;-67
2023/03/29 04:46:02;;;;;;;7.03;4.50;;;6.00;99.90;;;;;;5051212;28;20417;-67
2023/03/29 04:48:30;;;;;;;9.73;4.60;;;5.90;99.90;;;;;;5053437;28;20116;-67
2023/03/29 04:50:56;;;;;;;10.68;4.97;;;5.90;99.90;;;;;;5052772;28;20060;-67
2023/03/29 04:53:22;;;;;;;9.75;6.03;;;5.90;99.90;;;;;;5054430;28;20029;-67
2023/03/29 04:55:47;;;;;;;10.88;4.68;;;5.90;99.90;;;;;;5053271;28;20486;-67
2023/03/29 04:58:13;;;;;;;11.00;4.75;;;5.90;99.90;;;;;;5054357;28;20072;-67
2023/03/29 05:00:39;;;;;;;9.93;5.60;;;5.90;99.90;;;;;;5053154;28;20044;-67
2023/03/29 05:03:06;;;;;;;10.40;5.63;;;5.90;99.90;;;;;;5053239;28;20098;-67
2023/03/29 05:05:32;;;;;;;10.18;5.60;;;5.90;99.90;;;;;;5053856;28;20040;-67
2023/03/29 05:07:57;;;;;;;10.05;5.85;;;5.90;99.90;;;;;;5054277;28;20037;-67
2023/03/29 05:10:23;;;;;;;7.72;5.13;;;5.80;99.90;;;;;;5053042;28;20064;-67
2023/03/29 05:12:52;;;;;;;10.07;5.00;;;5.80;99.90;;;;;;5052791;28;20072;-67
2023/03/29 05:15:21;;;;;;;6.45;5.00;;;5.90;99.90;;;;;;5053056;28;20044;-67
2023/03/29 05:17:47;;;;;;;9.00;4.80;;;5.90;99.90;;;;;;5053778;28;20404;-67
2023/03/29 05:20:14;;;;;;;10.82;6.18;;;5.90;99.90;;;;;;5054198;28;20041;-68
2023/03/29 05:22:40;;;;;;;8.65;4.85;;;5.90;99.90;;;;;;5036172;28;20060;-67
2023/03/29 05:25:07;;;;;;;11.15;5.25;;;5.90;99.90;;;;;;5052289;28;20147;-67
2023/03/29 05:27:33;;;;;;;11.93;5.95;;;5.90;99.90;;;;;;5036158;28;20041;-67
2023/03/29 05:30:00;;;;;;;7.13;4.78;;;5.90;99.90;;;;;;5053911;28;20072;-67
2023/03/29 05:32:27;;;;;;;9.52;5.95;;;5.90;99.90;;;;;;5035589;28;20040;-67
2023/03/29 05:34:53;;;;;;;12.32;6.07;;;5.90;99.90;;;;;;5052933;28;20379;-67
2023/03/29 05:37:18;;;;;;;10.68;5.75;;;6.00;99.90;;;;;;5052900;28;20041;-67
2023/03/29 05:39:44;;;;;;;10.60;6.10;;;6.00;99.90;;;;;;5053273;28;20049;-67
2023/03/29 05:42:14;;;;;;;10.75;5.78;;;6.00;99.90;;;;;;5052849;28;20099;-67
2023/03/29 05:44:40;;;;;;;8.90;4.97;;;6.00;99.90;;;;;;5052694;28;20053;-67
2023/03/29 05:47:06;;;;;;;11.32;6.82;;;6.00;99.90;;;;;;5052026;28;20107;-67
2023/03/29 05:49:32;;;;;;;11.50;6.15;;;6.00;99.90;;;;;;5053282;28;20029;-67
2023/03/29 05:51:58;;;;;;;8.80;5.25;;;6.00;99.90;;;;;;5053905;28;20082;-67
2023/03/29 05:54:25;;;;;;;9.07;6.32;;;6.00;99.90;;;;;;5035281;28;20041;-67
2023/03/29 05:56:51;;;;;;;12.90;6.40;;;6.00;99.90;;;;;;5052416;28;20037;-67
2023/03/29 05:59:18;;;;;;;9.85;5.85;;;6.10;99.90;;;;;;5051386;28;20139;-67
2023/03/29 06:01:56;;;;;;;10.83;5.10;;;6.10;99.90;;;;;;5052943;28;20454;-67
2023/03/29 06:04:22;;;;;;;9.52;6.10;;;6.10;99.90;;;;;;5053402;28;20083;-67
2023/03/29 06:06:47;;;;;;;8.45;5.65;;;6.10;99.90;;;;;;5051454;28;20083;-67
2023/03/29 06:09:14;;;;;;;10.05;6.15;;;6.10;99.90;;;;;;5052386;28;20124;-67
2023/03/29 06:11:40;;;;;;;15.52;7.43;;;6.10;99.90;;;;;;5052140;28;20091;-66
2023/03/29 06:14:06;;;;;;;17.17;9.20;;;6.20;99.90;;;;;;5053262;28;20461;-67
2023/03/29 06:16:32;;;;;;;20.17;11.02;;;6.20;99.90;;;;;;5052346;28;20032;-67
2023/03/29 06:18:58;;;;;;;16.98;10.60;;;6.20;99.90;;;;;;5053451;28;20367;-67
2023/03/29 06:21:25;;;;;;;24.02;11.70;;;6.20;99.90;;;;;;5035390;28;20056;-67
2023/03/29 06:23:51;;;;;;;17.45;9.80;;;6.30;99.90;;;;;;5051839;28;20460;-67
2023/03/29 06:26:17;;;;;;;15.50;8.90;;;6.30;99.90;;;;;;5053075;28;20070;-67
2023/03/29 06:28:43;;;;;;;16.27;8.73;;;6.30;99.90;;;;;;5052765;28;20385;-67
2023/03/29 06:31:09;;;;;;;15.75;8.13;;;6.40;99.90;;;;;;5051992;28;20048;-67
2023/03/29 06:33:36;;;;;;;13.13;8.15;;;6.40;99.90;;;;;;5051813;28;20089;-67
2023/03/29 06:36:03;;;;;;;16.92;8.63;;;6.40;99.90;;;;;;5052236;28;20037;-67
2023/03/29 06:38:29;;;;;;;17.38;8.95;;;6.40;99.90;;;;;;5052894;28;20052;-67
2023/03/29 06:41:06;;;;;;;13.32;8.30;;;6.50;99.90;;;;;;5051834;28;20049;-67
2023/03/29 06:43:33;;;;;;;12.43;7.50;;;6.50;99.90;;;;;;5052162;28;20554;-67
2023/03/29 06:46:00;;;;;;;13.20;7.20;;;6.50;99.90;;;;;;5034559;28;20155;-67
2023/03/29 06:48:26;;;;;;;15.60;7.63;;;6.60;99.90;;;;;;5052544;28;20127;-67
2023/03/29 06:50:53;;;;;;;14.70;7.00;;;6.60;99.90;;;;;;5052933;28;20033;-67
2023/03/29 06:53:20;;;;;;;11.90;6.95;;;6.60;99.90;;;;;;5051195;28;20045;-67
2023/03/29 06:55:46;;;;;;;10.82;6.57;;;6.60;99.90;;;;;;5051830;28;20079;-67
2023/03/29 06:58:12;;;;;;;10.05;5.13;;;6.70;99.90;;;;;;5051406;28;20404;-67
2023/03/29 07:00:38;;;;;;;14.40;6.03;;;6.70;99.90;;;;;;5052570;28;20414;-67
2023/03/29 07:03:18;;;;;;;10.45;6.28;;;6.80;99.90;;;;;;5050746;28;20045;-67
2023/03/29 07:05:45;;;;;;;;;;;6.80;99.90;;;;;;5052798;28;20492;-67
2023/03/29 07:08:12;;;;;;;9.63;5.85;;;6.80;99.90;;;;;;5034320;28;19956;-67
2023/03/29 07:10:46;;;;;;;9.93;6.60;;;6.90;99.90;;;;;;5051429;28;20037;-67
2023/03/29 07:13:12;;;;;;;13.65;6.60;;;6.90;99.90;;;;;;5050853;28;20095;-67
2023/03/29 07:15:40;;;;;;;13.45;6.72;;;6.90;99.90;;;;;;5051225;28;20041;-68
2023/03/29 07:18:07;;;;;;;13.60;6.63;;;6.90;99.90;;;;;;5051789;28;20180;-67
2023/03/29 07:20:33;;;;;;;8.95;5.90;;;6.90;99.90;;;;;;5051996;28;20037;-67
2023/03/29 07:22:59;;;;;;;12.52;6.50;;;7.00;99.90;;;;;;5051670;28;20053;-67
2023/03/29 07:25:29;;;;;;;11.55;6.35;;;7.00;99.90;;;;;;5050559;28;20080;-67
2023/03/29 07:27:55;;;;;;;12.60;6.80;;;7.10;99.90;;;;;;5052012;28;20049;-67
2023/03/29 07:30:28;;;;;;;10.02;6.82;;;7.10;99.90;;;;;;5052032;28;20076;-67
2023/03/29 07:32:56;;;;;;;11.43;6.22;;;7.20;99.90;;;;;;5052460;28;20454;-68
2023/03/29 07:35:22;;;;;;;11.95;6.38;;;7.20;99.90;;;;;;5051125;28;20438;-68
2023/03/29 07:37:48;;;;;;;8.43;5.57;;;7.20;99.90;;;;;;5049964;28;20397;-68
2023/03/29 07:40:22;;;;;;;9.20;5.38;;;7.30;99.90;;;;;;5050257;28;20045;-68
2023/03/29 07:42:53;;;;;;;8.45;5.53;;;7.30;99.90;;;;;;5051365;28;20079;-68
2023/03/29 07:45:22;;;;;;;10.27;5.80;;;7.30;99.90;;;;;;5050026;28;20049;-68
2023/03/29 07:47:52;;;;;;;9.65;5.65;;;7.40;99.90;;;;;;5049940;28;20068;-68
2023/03/29 07:50:18;;;;;;;7.32;4.80;;;7.50;99.90;;;;;;5050905;28;20075;-68
2023/03/29 07:52:44;;;;;;;9.30;5.57;;;7.50;99.90;;;;;;5032789;28;20068;-69
2023/03/29 07:55:12;;;;;;;10.30;5.63;;;7.60;99.90;;;;;;5051198;28;20033;-68
2023/03/29 07:57:38;;;;;;;12.18;6.60;;;7.70;99.90;;;;;;5049493;28;20041;-68
2023/03/29 08:00:14;;;;;;;12.52;6.25;;;7.70;99.90;;;;;;5049328;28;20109;-68
2023/03/29 08:02:46;;;;;;;10.48;6.93;;;7.70;99.90;;;;;;5034532;28;20091;-68
2023/03/29 08:05:13;;;;;;;9.90;6.13;;;7.70;99.90;;;;;;5049623;28;20041;-68
2023/03/29 08:07:41;;;;;;;10.30;6.88;;;7.80;99.90;;;;;;5050552;28;20090;-68
2023/03/29 08:10:12;;;;;;;9.48;6.13;;;7.80;99.90;;;;;;5049363;28;20473;-68
2023/03/29 08:12:39;;;;;;;9.13;5.72;;;7.90;99.90;;;;;;5049259;28;20037;-68
2023/03/29 08:15:06;;;;;;;12.05;6.07;;;7.90;99.90;;;;;;5049290;28;20044;-68
2023/03/29 08:17:33;;;;;;;13.02;6.43;;;7.90;99.90;;;;;;5048717;28;20508;-68
2023/03/29 08:20:00;;;;;;;13.63;7.15;;;8.00;99.90;;;;;;5051143;28;20037;-69
2023/03/29 08:22:25;;;;;;;12.27;6.68;;;8.00;99.90;;;;;;5049928;28;20056;-68
2023/03/29 08:24:51;;;;;;;12.13;6.13;;;8.00;99.90;;;;;;5049054;28;20044;-69
2023/03/29 08:27:17;;;;;;;11.45;6.80;;;8.10;99.90;;;;;;5032836;28;20047;-68
2023/03/29 08:29:43;;;;;;;9.38;5.57;;;8.10;99.90;;;;;;5050332;28;20082;-68
2023/03/29 08:32:09;;;;;;;14.63;7.00;;;8.20;99.90;;;;;;5049033;28;20037;-68
2023/03/29 08:34:35;;;;;;;11.07;6.03;;;8.20;99.90;;;;;;5049860;28;20041;-68
2023/03/29 08:37:02;;;;;;;11.27;6.15;;;8.30;99.90;;;;;;5050261;28;20119;-68
2023/03/29 08:39:28;;;;;;;11.13;6.97;;;8.30;99.90;;;;;;5050214;28;20038;-68
2023/03/29 08:42:13;;;;;;;10.35;6.28;;;8.40;99.90;;;;;;5050131;28;20520;-68
2023/03/29 08:45:08;;;;;;;11.68;6.88;;;8.50;99.90;;;;;;5048822;28;20523;-68
2023/03/29 08:47:59;;;;;;;10.70;6.18;;;8.60;99.90;;;;;;5048677;28;20084;-68
2023/03/29 08:50:38;;;;;;;11.25;6.55;;;8.60;99.90;;;;;;5049041;28;20072;-68
2023/03/29 08:53:12;;;;;;;13.25;6.85;;;8.70;99.90;;;;;;5049042;28;20415;-69
2023/03/29 08:55:50;;;;;;;13.25;7.18;;;8.80;99.90;;;;;;5049948;28;20045;-68
2023/03/29 08:58:19;;;;;;;13.07;6.85;;;8.80;99.90;;;;;;5049002;28;20406;-68
2023/03/29 09:00:56;;;;;;;11.10;7.63;;;8.90;99.90;;;;;;5048876;28;20045;-68
2023/03/29 09:03:31;;;;;;;12.15;6.97;;;8.90;99.90;;;;;;5049630;28;20056;-68
2023/03/29 09:06:09;;;;;;;11.10;6.38;;;9.00;99.90;;;;;;5048744;28;20125;-68
2023/03/29 09:08:40;;;;;;;12.10;6.63;;;9.10;99.90;;;;;;5048860;28;20049;-69
2023/03/29 09:11:34;;;;;;;11.25;6.65;;;9.20;99.90;;;;;;5050425;28;20387;-69
2023/03/29 09:14:31;;;;;;;11.90;7.32;;;9.20;99.90;;;;;;5048734;28;20048;-68
2023/03/29 09:17:16;;;;;;;12.15;7.25;;;9.30;99.90;;;;;;5050062;28;20111;-68
2023/03/29 09:19:59;;;;;;;12.63;8.35;;;9.40;99.90;;;;;;5048682;28;20079;-69
2023/03/29 09:22:43;;;;;;;14.43;8.27;;;9.40;99.90;;;;;;5049566;28;20481;-69
2023/03/29 09:25:38;;;;;;;15.13;7.72;;;9.60;99.90;;;;;;5048950;28;20099;-69
2023/03/29 09:28:18;;;;;;;11.05;6.75;;;9.60;99.90;;;;;;5010767;28;20537;-69
2023/03/29 09:31:12;;;;;;;16.15;8.95;;;9.70;99.90;;;;;;5011261;28;20042;-69
2023/03/29 09:34:02;;;;;;;13.13;7.78;;;9.80;99.90;;;;;;5012205;28;20038;-69
2023/03/29 09:36:56;;;;;;;15.82;7.78;;;9.90;99.90;;;;;;5031060;28;20123;-69
2023/03/29 09:39:22;;;;;;;12.60;8.15;;;10.00;99.90;;;;;;5028688;28;20052;-68
2023/03/29 09:41:56;;;;;;;14.52;7.35;;;10.10;99.90;;;;;;5014366;28;20524;-69
2023/03/29 09:44:44;;;;;;;13.55;8.55;;;10.10;99.90;;;;;;5030569;28;20409;-68
2023/03/29 09:47:19;;;;;;;16.83;8.93;;;10.10;99.90;;;;;;5030293;28;20132;-69
2023/03/29 09:49:49;;;;;;;19.98;8.68;;;10.20;99.90;;;;;;5014131;28;20057;-69
2023/03/29 09:52:17;;;;;;;15.07;9.40;;;10.30;99.90;;;;;;5030339;28;20060;-69
2023/03/29 09:54:43;;;;;;;17.13;9.15;;;10.30;99.90;;;;;;5014404;28;20071;-69
2023/03/29 09:57:12;;;;;;;14.85;9.73;;;10.40;99.90;;;;;;5014115;28;20047;-69
2023/03/29 09:59:38;;;;;;;18.40;8.43;;;10.40;99.90;;;;;;5030277;28;20116;-69
2023/03/29 10:02:10;;;;;;;20.98;10.00;;;10.40;99.90;;;;;;5014332;28;20362;-69
2023/03/29 10:04:37;;;;;;;15.60;10.38;;;10.40;99.90;;;;;;5017632;28;20171;-69
2023/03/29 10:07:05;;;;;;;15.75;9.88;;;10.40;99.90;;;;;;5052874;28;20468;-69
2023/03/29 10:09:31;;;;;;;18.83;10.90;;;10.50;99.90;;;;;;5051199;28;20041;-69
2023/03/29 10:12:02;;;;;;;17.23;10.43;;;10.60;99.90;;;;;;5052434;28;20516;-69
2023/03/29 10:14:46;;;;;;;17.20;10.55;;;10.70;99.90;;;;;;5052741;28;20040;-69
2023/03/29 10:17:39;;;;;;;26.58;11.77;;;10.90;99.90;;;;;;5051259;28;20049;-69
2023/03/29 10:20:11;;;;;;;18.60;9.88;;;11.20;99.90;;;;;;5050958;28;20051;-69
2023/03/29 10:22:39;;;;;;;19.40;12.50;;;11.40;99.90;;;;;;5050710;28;20489;-69
2023/03/29 10:25:12;;;;;;;20.42;12.88;;;11.60;99.90;;;;;;5051226;28;20478;-69
2023/03/29 10:27:41;;;;;;;17.63;12.68;;;11.60;99.90;;;;;;5050592;28;20107;-70
2023/03/29 10:30:11;;;;;;;19.13;12.48;;;11.70;99.90;;;;;;5050949;28;20045;-69
2023/03/29 10:32:38;;;;;;;20.60;13.13;;;11.60;99.90;;;;;;5050201;28;20048;-69
2023/03/29 10:35:14;;;;;;;16.45;10.95;;;11.70;99.90;;;;;;5050769;28;20049;-68
2023/03/29 10:37:42;;;;;;;16.58;10.73;;;11.70;99.90;;;;;;5050816;28;20056;-69
2023/03/29 10:40:25;;;;;;;15.20;10.10;;;11.80;99.90;;;;;;5051196;28;20045;-69
2023/03/29 10:42:52;;;;;;;15.38;9.70;;;11.90;99.90;;;;;;5051804;28;20430;-69
2023/03/29 10:45:32;;;;;;;15.35;10.38;;;11.90;99.90;;;;;;5050204;28;20041;-69
2023/03/29 10:47:58;;;;;;;14.95;10.35;;;12.10;99.90;;;;;;5051393;28;20045;-70
2023/03/29 10:50:32;;;;;;;13.30;9.52;;;12.20;99.90;;;;;;5051459;28;20440;-68
2023/03/29 10:52:58;;;;;;;14.52;9.70;;;12.30;99.90;;;;;;5051366;28;20452;-68
2023/03/29 10:55:35;;;;;;;13.27;9.98;;;12.40;99.90;;;;;;5049817;28;20045;-70
2023/03/29 10:58:30;;;;;;;13.63;9.85;;;12.50;99.90;;;;;;5049942;28;20045;-69
2023/03/29 11:00:57;;;;;;;15.93;9.65;;;12.50;99.90;;;;;;5050883;28;20048;-69
2023/03/29 11:03:54;;;;;;;14.00;9.93;;;12.50;99.90;;;;;;5049874;28;20041;-69
2023/03/29 11:06:33;;;;;;;14.95;10.20;;;12.60;99.90;;;;;;5050011;28;20090;-69
2023/03/29 11:09:03;;;;;;;13.55;8.38;;;12.60;99.90;;;;;;5049081;28;20051;-69
2023/03/29 11:11:51;;;;;;;15.70;9.93;;;12.70;99.90;;;;;;5049698;28;20049;-69
2023/03/29 11:14:38;;;;;;;12.85;8.55;;;12.80;99.90;;;;;;5049672;28;20049;-69
2023/03/29 11:17:07;;;;;;;15.00;9.50;;;12.90;99.90;;;;;;5051092;28;20056;-69
2023/03/29 11:19:54;;;;;;;14.45;10.57;;;13.10;99.90;;;;;;5050896;28;20051;-69
2023/03/29 11:22:49;;;;;;;14.05;10.77;;;13.10;99.90;;;;;;5049198;28;20037;-69
2023/03/29 11:25:50;;;;;;;15.02;10.13;;;13.10;99.90;;;;;;5041384;28;20055;-69
2023/03/29 11:28:47;;;;;;;15.27;10.15;;;13.10;99.90;;;;;;4991940;28;20050;-69
2023/03/29 11:31:52;;;;;;;14.52;10.65;;;13.10;99.90;;;;;;5008456;28;20109;-69
2023/03/29 11:34:36;;;;;;;13.38;10.23;;;13.00;99.90;;;;;;4962427;28;20050;-69
2023/03/29 11:37:24;;;;;;;14.05;9.70;;;12.90;99.90;;;;;;4991625;28;20104;-69
2023/03/29 11:40:15;;;;;;;14.88;9.95;;;12.90;99.90;;;;;;5008388;28;20526;-70
2023/03/29 11:42:47;;;;;;;15.55;10.27;;;12.80;99.90;;;;;;5000252;28;20054;-69
2023/03/29 11:45:24;;;;;;;14.63;9.35;;;12.80;99.90;;;;;;4991714;28;20597;-69
2023/03/29 11:47:52;;;;;;;15.02;9.65;;;12.80;99.90;;;;;;5007867;28;20081;-69
2023/03/29 11:50:30;;;;;;;14.13;9.57;;;12.80;99.90;;;;;;4975312;28;20060;-69
2023/03/29 11:53:05;;;;;;;15.35;11.52;;;12.80;99.90;;;;;;5008016;28;20050;-69
2023/03/29 11:55:35;;;;;;;17.33;12.40;;;12.80;99.90;;;;;;5007553;28;20533;-69
2023/03/29 11:58:04;;;;;;;16.23;11.05;;;12.80;99.90;;;;;;4991245;28;20156;-69
2023/03/29 12:00:51;;;;;;;18.80;11.82;;;12.90;99.90;;;;;;4991442;28;20053;-69
2023/03/29 12:03:22;;;;;;;20.23;12.52;;;12.80;99.90;;;;;;5004204;28;20397;-68
2023/03/29 12:05:57;;;;;;;19.45;12.07;;;12.80;99.90;;;;;;5049431;28;20037;-69
2023/03/29 12:08:42;;;;;;;19.33;12.50;;;12.80;99.90;;;;;;5050108;28;20045;-68
2023/03/29 12:11:12;;;;;;;22.42;13.13;;;12.70;99.90;;;;;;5048413;28;20444;-69
2023/03/29 12:13:57;;;;;;;18.25;12.88;;;12.80;99.90;;;;;;5050071;28;20041;-69
2023/03/29 12:16:29;;;;;;;17.35;12.85;;;12.80;99.90;;;;;;5032076;28;20033;-69
2023/03/29 12:18:58;;;;;;;18.77;11.75;;;12.90;99.90;;;;;;5047880;28;20053;-68
2023/03/29 12:21:27;;;;;;;18.33;13.70;;;13.00;99.90;;;;;;5050020;28;20421;-69
2023/03/29 12:23:53;;;;;;;16.80;10.87;;;13.10;99.90;;;;;;5049369;28;20065;-69
2023/03/29 12:26:29;;;;;;;17.63;12.05;;;13.20;99.90;;;;;;5047773;28;20049;-69
2023/03/29 12:29:07;;;;;;;17.15;12.63;;;13.30;99.90;;;;;;5048400;28;20048;-69
2023/03/29 12:31:51;;;;;;;16.95;11.40;;;13.50;99.90;;;;;;5047639;28;20124;-69
2023/03/29 12:34:31;;;;;;;17.52;11.63;;;13.50;99.90;;;;;;5048514;28;20397;-69
2023/03/29 12:37:35;;;;;;;15.48;11.90;;;13.60;99.90;;;;;;5031600;28;20075;-68
2023/03/29 12:40:13;;;;;;;15.05;12.15;;;13.70;99.90;;;;;;5047681;28;20060;-68
2023/03/29 12:42:47;;;;;;;19.90;12.15;;;13.80;99.90;;;;;;5048100;28;20512;-69
2023/03/29 12:45:20;;;;;;;15.63;11.35;;;13.90;99.90;;;;;;5048144;28;20076;-69
2023/03/29 12:47:49;;;;;;;16.42;11.02;;;13.90;99.90;;;;;;5047782;28;20060;-69
2023/03/29 12:50:31;;;;;;;18.80;11.20;;;14.00;99.90;;;;;;5031641;28;20110;-69
2023/03/29 12:53:13;;;;;;;13.38;10.55;;;14.10;99.90;;;;;;5047436;28;20075;-69
2023/03/29 12:55:42;;;;;;;15.82;10.85;;;14.20;99.90;;;;;;5049218;28;20088;-69
2023/03/29 12:58:41;;;;;;;13.63;11.02;;;14.30;99.90;;;;;;5049310;28;20043;-69
2023/03/29 13:01:25;;;;;;;15.25;9.75;;;14.30;99.90;;;;;;5042888;28;20056;-69
2023/03/29 13:03:56;;;;;;;14.45;10.68;;;14.30;99.90;;;;;;5047922;28;20048;-69
2023/03/29 13:06:30;;;;;;;16.35;12.25;;;14.20;99.90;;;;;;5047877;28;20041;-69
2023/03/29 13:09:03;;;;;;;15.65;11.55;;;14.10;99.90;;;;;;5052244;28;20048;-70
2023/03/29 13:11:33;;;;;;;19.23;13.20;;;14.00;99.90;;;;;;5052105;28;20443;-69